Cocoa Beach, FL (32931)

11:23 AM EST on February 06, 2016 (GMT -0500)
The Weather Reporter | | Change Station
CLOSE
Current Station
Personal Weather Station
Location: Merritt Island, FL
Elevation: 13 ft
Nearby Weather Stations

Elev 13 ft 28.36 °N, 80.66 °W | Updated 6 minutes ago

Clear
Clear
71.7 °F
Feels Like 74 °F
N
3.0
Wind Variable Wind from ENE

Today
High -- | Low -- °F
--% Chance of Precip.
Yesterday
High -- | Low -- °F
Precip. -- in
Pressure 30.19 in
Visibility 10.0 miles
Clouds Few 7000 ft
Heat Index 74 °F
Dew Point 62 °F
Humidity 72%
Rainfall 0.00 in
Snow Depth Not available.
7:07 AM 6:05 PM
Waning Crescent, 5% visible
METAR KCOF 061458Z AUTO 06007KT 10SM FEW070 22/15 A3018 RMK AO2 SLP224 T02200149 53003 $
Pressure 30.19 in
Visibility 10.0 miles
Clouds Few 7000 ft
Heat Index 74 °F
Dew Point 62 °F
Humidity 72%
Rainfall 0.00 in
Snow Depth Not available.
7:07 AM 6:05 PM
Waning Crescent, 5% visible
METAR KCOF 061458Z AUTO 06007KT 10SM FEW070 22/15 A3018 RMK AO2 SLP224 T02200149 53003 $

10-Day Weather Forecast

Almanac

Astronomy

Feb. 06, 2016 Rise Set
Actual Time
Civil Twilight
Nautical Twilight
Astronomical Twilight
Moon
Length of Visible Light
Length of Day
Tomorrow will be .
, % of the Moon is Illuminated

Today's Extremes

State Highs State Lows

Community

WunderPhotos

Upload Photos

1,891,013 photos uploaded!

WunderBlog® & News

Nearby

Air Quality

  Air Quality AQ Index Pollutant
Not available.

Snow Depth

Station Depth Elevation

Earthquake Activity

City Distance Mag. Time & Date
Minimum magnitude displayed is 2.5.

Coastal Water Temperatures

Place Temperature

Stations

Nearby Weather Stations

Station Location Temp. Windchill Dew Point Humidity Wind Precip. Elev Updated Type
                   

Watches & Warnings

There are currently no watches in effect.